New Stream — JD3451 — position and weather

sailwx.info

Track history (hours):
 
Tides and Currents Weather Stations Pressure Air Temp Water Temp Dewpoint Dewpoint Depression Visibility Wind Speed Wind Dir Waves Ship Positions

New Stream

Last reported at 2017-Dec-17 19:30 UTC. Time now 2017-Dec-17 19:47 UTC.
Position N 34°42' E 135°16'.

Length 51 m; draft 3.5 m.

Type: Tanker. MMSI: 431004149.

Date/timePositionNaut miles runAvg speedWind from/ knotsBaromVisibWave heightAir tempDewpointWater temp
2017-Dec-17 19:30N 34°42' E 135°16'0 0.0
2017-Dec-17 19:01N 34°42' E 135°16'0 0.0
2017-Dec-17 18:31N 34°42' E 135°16'0 0.0
2017-Dec-17 18:00N 34°42' E 135°16'0 0.0
2017-Dec-17 17:30N 34°42' E 135°16'0 0.0
2017-Dec-17 17:01N 34°42' E 135°16'0 0.0
2017-Dec-17 16:30N 34°42' E 135°16'0 0.0
2017-Dec-17 16:00N 34°42' E 135°16'0 0.0
2017-Dec-17 15:31N 34°42' E 135°16'0 0.0
2017-Dec-17 15:00N 34°42' E 135°16'0 0.0
2017-Dec-17 14:31N 34°42' E 135°16'0 0.0
2017-Dec-17 14:01N 34°42' E 135°16'0 0.0
2017-Dec-17 13:31N 34°42' E 135°16'0 0.0
2017-Dec-17 13:01N 34°42' E 135°16'0 0.0
2017-Dec-17 12:31N 34°42' E 135°16'0 0.0
2017-Dec-17 12:01N 34°42' E 135°16'0 0.0
2017-Dec-17 11:31N 34°42' E 135°16'0 0.0
2017-Dec-17 11:00N 34°42' E 135°16'0 0.0
2017-Dec-17 10:30N 34°42' E 135°16'0 0.0
2017-Dec-17 10:01N 34°42' E 135°16'0 0.0
2017-Dec-17 09:30N 34°42' E 135°16'0 0.0
2017-Dec-17 09:00N 34°42' E 135°16'0 0.0
2017-Dec-17 08:31N 34°42' E 135°16'0 0.0
2017-Dec-17 08:01N 34°42' E 135°16'0 0.0
2017-Dec-17 07:30N 34°42' E 135°16'0 0.0
2017-Dec-17 07:00N 34°42' E 135°16'0 0.0
2017-Dec-17 06:31N 34°42' E 135°16'0 0.0
2017-Dec-17 06:01N 34°42' E 135°16'0 0.5
2017-Dec-17 05:30N 34°42' E 135°16'4 8.8
2017-Dec-17 05:00N 34°38' E 135°18'611.2
2017-Dec-17 04:30N 34°33' E 135°15'611.0
2017-Dec-17 04:00N 34°28' E 135°11'510.7
2017-Dec-17 03:30N 34°24' E 135°08'510.4
2017-Dec-17 03:00N 34°19' E 135°04'4 9.0
2017-Dec-17 02:31N 34°15' E 135°03'510.8
2017-Dec-17 02:00N 34°10' E 135°03'510.4
2017-Dec-17 01:30N 34°04' E 135°03'5 9.8
2017-Dec-17 01:00N 33°59' E 135°02'96 6.5
2017-Dec-16 10:19N 34°29' E 136°52'411.7
2017-Dec-16 10:00N 34°31' E 136°48'711.9
2017-Dec-16 09:24N 34°37' E 136°43'511.2
2017-Dec-16 08:56N 34°38' E 136°37'3 6.4
2017-Dec-16 08:29N 34°37' E 136°33'0 0.0
2017-Dec-16 06:58N 34°37' E 136°33'0 0.0
2017-Dec-16 06:30N 34°37' E 136°33'0 0.0
2017-Dec-16 03:48N 34°37' E 136°33'2 6.4
2017-Dec-16 03:30N 34°38' E 136°35'611.2
2017-Dec-16 03:00N 34°37' E 136°42'611.1
2017-Dec-16 02:26N 34°36' E 136°49'1710.7
2017-Dec-16 00:51N 34°33' E 137°10'411.1
2017-Dec-16 00:30N 34°34' E 137°14'4510.5
2017-Dec-15 20:11N 34°34' E 138°09'2 9.4
2017-Dec-15 19:57N 34°34' E 138°12'510.0
2017-Dec-15 19:30N 34°34' E 138°18'510.4
2017-Dec-15 19:00N 34°34' E 138°24'611.0
2017-Dec-15 18:30N 34°35' E 138°30'610.6
2017-Dec-15 17:55N 34°35' E 138°38'5 9.9
2017-Dec-15 17:24N 34°35' E 138°44'4 9.5
2017-Dec-15 17:01N 34°35' E 138°49'5 9.4
2017-Dec-15 16:30N 34°35' E 138°54'510.3
2017-Dec-15 16:00N 34°38' E 138°60'611.7
2017-Dec-15 15:30N 34°43' E 139°04'611.1
2017-Dec-15 15:00N 34°47' E 139°07'611.7
2017-Dec-15 14:30N 34°52' E 139°11'611.2
2017-Dec-15 13:59N 34°56' E 139°17'610.2
2017-Dec-15 13:26N 34°59' E 139°23'510.2
2017-Dec-15 12:57N 35°01' E 139°28'510.5
2017-Dec-15 12:26N 35°04' E 139°34'510.7
2017-Dec-15 12:00N 35°06' E 139°39'611.0
2017-Dec-15 11:30N 35°10' E 139°44'611.6
2017-Dec-15 11:01N 35°15' E 139°46'611.8
2017-Dec-15 10:30N 35°20' E 139°42'611.5
2017-Dec-15 10:00N 35°26' E 139°42'3 6.6
2017-Dec-15 09:31N 35°29' E 139°40'0 0.0
2017-Dec-15 09:01N 35°29' E 139°40'0 0.0
2017-Dec-15 08:31N 35°29' E 139°40'0 0.0
2017-Dec-15 08:01N 35°29' E 139°40'0 0.0
2017-Dec-15 07:30N 35°29' E 139°40'0 0.0
2017-Dec-15 07:00N 35°29' E 139°40'0 0.0
2017-Dec-15 06:31N 35°29' E 139°40'0 0.0
2017-Dec-15 06:01N 35°29' E 139°40'0 0.0
2017-Dec-15 05:31N 35°29' E 139°40'0 0.0
2017-Dec-15 05:00N 35°29' E 139°40'0 0.0
2017-Dec-15 04:30N 35°29' E 139°40'0 0.0
2017-Dec-15 04:01N 35°29' E 139°40'0 0.0
2017-Dec-15 02:31N 35°29' E 139°40'0 0.0
2017-Dec-15 01:01N 35°29' E 139°40'0 0.0
2017-Dec-15 00:30N 35°29' E 139°40'0 0.0
2017-Dec-14 18:31N 35°29' E 139°40'0 0.0
2017-Dec-14 18:00N 35°29' E 139°40'0 0.0
2017-Dec-14 17:31N 35°29' E 139°40'0 0.0
2017-Dec-14 17:00N 35°29' E 139°40'0 0.0
2017-Dec-14 16:31N 35°29' E 139°40'0 0.0
2017-Dec-14 16:01N 35°29' E 139°40'0 0.0
2017-Dec-14 15:01N 35°29' E 139°40'0 0.0
2017-Dec-14 14:31N 35°29' E 139°40'0 0.0
2017-Dec-14 14:01N 35°29' E 139°40'0 0.0
2017-Dec-14 13:31N 35°29' E 139°40'0 0.0
2017-Dec-14 13:00N 35°29' E 139°40'0 0.0
2017-Dec-14 12:31N 35°29' E 139°40'0 0.0
2017-Dec-14 12:01N 35°29' E 139°40'0 0.0
2017-Dec-14 11:30N 35°29' E 139°40'0 0.0
2017-Dec-14 11:01N 35°29' E 139°40'0 0.0
2017-Dec-14 10:31N 35°29' E 139°40'0 0.0
2017-Dec-14 10:01N 35°29' E 139°40'0 0.0
2017-Dec-14 09:31N 35°29' E 139°40'0 0.0
2017-Dec-14 09:01N 35°29' E 139°40'0 0.0
2017-Dec-14 08:31N 35°29' E 139°40'0 0.0
2017-Dec-14 08:01N 35°29' E 139°40'0 0.0
2017-Dec-14 07:31N 35°29' E 139°40'0 0.0
2017-Dec-14 07:00N 35°29' E 139°40'0 0.0
2017-Dec-14 06:31N 35°29' E 139°40'0 0.0
2017-Dec-14 06:01N 35°29' E 139°40'0 0.0
2017-Dec-14 05:30N 35°29' E 139°40'0 0.0
2017-Dec-14 05:00N 35°29' E 139°40'0 0.0
2017-Dec-14 04:31N 35°29' E 139°40'0 0.0
2017-Dec-14 04:00N 35°29' E 139°40'0 0.0
2017-Dec-14 03:31N 35°29' E 139°40'0 0.0
2017-Dec-14 03:01N 35°29' E 139°40'0 0.0
2017-Dec-14 02:30N 35°29' E 139°40'0 0.0
2017-Dec-14 02:01N 35°29' E 139°40'0 0.0
2017-Dec-14 01:31N 35°29' E 139°40'0 0.0
2017-Dec-14 01:01N 35°29' E 139°40'0 0.0
2017-Dec-14 00:31N 35°29' E 139°40'0 0.0
2017-Dec-14 00:00N 35°29' E 139°40'0 0.0
2017-Dec-13 23:31N 35°29' E 139°40'0 0.0
2017-Dec-13 23:00N 35°29' E 139°40'0 0.0
2017-Dec-13 22:31N 35°29' E 139°40'0 0.0
2017-Dec-13 22:00N 35°29' E 139°40'2 3.3
2017-Dec-13 21:30N 35°27' E 139°41'5 9.6
2017-Dec-13 21:00N 35°23' E 139°43'5 9.8
2017-Dec-13 20:30N 35°18' E 139°44'5 9.9
2017-Dec-13 20:00N 35°14' E 139°47'510.1
2017-Dec-13 19:30N 35°09' E 139°46'1110.2
2017-Dec-13 18:27N 34°60' E 139°39'2411.0
2017-Dec-13 16:15N 34°46' E 139°14'1011.0
2017-Dec-13 15:20N 34°40' E 139°04'5 9.9
2017-Dec-13 14:51N 34°37' E 138°60'4 9.6
2017-Dec-13 14:28N 34°35' E 138°56'1310.8
2017-Dec-13 13:17N 34°36' E 138°41'311.1
2017-Dec-13 13:00N 34°38' E 138°38'610.4
2017-Dec-13 12:28N 34°43' E 138°35'510.5
2017-Dec-13 12:00N 34°48' E 138°34'510.9
2017-Dec-13 11:31N 34°54' E 138°34'510.7
2017-Dec-13 11:00N 34°59' E 138°34'4 7.5
2017-Dec-13 10:31N 35°01' E 138°30'0 0.3
2017-Dec-13 10:00N 35°01' E 138°30'0 0.0
2017-Dec-13 09:30N 35°01' E 138°30'0 0.0
2017-Dec-13 09:00N 35°01' E 138°30'0 0.0
2017-Dec-13 08:30N 35°01' E 138°30'0 0.0
2017-Dec-13 08:00N 35°01' E 138°30'0 0.0
2017-Dec-13 07:30N 35°01' E 138°30'0 0.0
2017-Dec-13 07:00N 35°01' E 138°30'0 0.0
2017-Dec-13 06:30N 35°01' E 138°30'0 0.0
2017-Dec-13 06:00N 35°01' E 138°30'0 0.0
2017-Dec-13 05:30N 35°01' E 138°30'0 0.0
2017-Dec-13 05:00N 35°01' E 138°30'0 0.0
2017-Dec-13 04:30N 35°01' E 138°30'0 0.0
2017-Dec-13 04:01N 35°01' E 138°30'0 0.0
2017-Dec-13 03:30N 35°01' E 138°30'0 0.0
2017-Dec-13 03:00N 35°01' E 138°30'0 0.0
2017-Dec-13 02:30N 35°01' E 138°30'0 0.0
2017-Dec-13 02:00N 35°01' E 138°30'0 0.0
2017-Dec-13 01:30N 35°01' E 138°30'0 0.0
2017-Dec-13 01:00N 35°01' E 138°30'0 0.0
2017-Dec-13 00:30N 35°01' E 138°30'1 2.3
2017-Dec-13 00:01N 35°01' E 138°31'4 7.8
2017-Dec-12 23:30N 34°57' E 138°31'611.2
2017-Dec-12 23:00N 34°53' E 138°27'611.6
2017-Dec-12 22:30N 34°48' E 138°23'4 7.7
2017-Dec-12 21:59N 34°45' E 138°26'5 9.8
2017-Dec-12 21:30N 34°43' E 138°31'4 7.7
2017-Dec-12 20:59N 34°41' E 138°36'3 6.9
2017-Dec-12 20:30N 34°40' E 138°39'3 6.1
2017-Dec-12 20:00N 34°38' E 138°42'2 4.9
2017-Dec-12 19:30N 34°37' E 138°45'2 4.0
2017-Dec-12 19:00N 34°36' E 138°47'2 3.9
2017-Dec-12 18:31N 34°36' E 138°49'2 3.6
2017-Dec-12 18:00N 34°35' E 138°52'2 3.8
2017-Dec-12 17:30N 34°35' E 138°54'3 5.1
2017-Dec-12 17:00N 34°36' E 138°57'4 7.6
2017-Dec-12 16:30N 34°38' E 139°00'510.2
2017-Dec-12 16:00N 34°43' E 139°03'510.6
2017-Dec-12 15:31N 34°47' E 139°06'610.4
2017-Dec-12 14:54N 34°52' E 139°11'410.8
2017-Dec-12 14:30N 34°55' E 139°16'610.9
2017-Dec-12 13:58N 34°58' E 139°22'510.5
2017-Dec-12 13:30N 35°00' E 139°27'711.1
2017-Dec-12 12:53N 35°04' E 139°34'511.6
2017-Dec-12 12:29N 35°06' E 139°39'611.3
2017-Dec-12 11:59N 35°10' E 139°44'510.9
2017-Dec-12 11:31N 35°15' E 139°46'611.1
2017-Dec-12 11:01N 35°20' E 139°43'611.4
2017-Dec-12 10:31N 35°25' E 139°42'4 8.0
2017-Dec-12 10:01N 35°29' E 139°40'0 0.0
2017-Dec-12 09:31N 35°29' E 139°40'0 0.0
2017-Dec-12 09:01N 35°29' E 139°40'0 0.0
2017-Dec-12 08:31N 35°29' E 139°40'0 0.0
2017-Dec-12 08:00N 35°29' E 139°40'0 0.0
2017-Dec-12 07:30N 35°29' E 139°40'0 0.0
2017-Dec-12 07:01N 35°29' E 139°40'0 0.0
2017-Dec-12 06:31N 35°29' E 139°40'0 0.0
2017-Dec-12 06:01N 35°29' E 139°40'0 0.0
2017-Dec-12 05:30N 35°29' E 139°40'0 0.0
2017-Dec-12 05:01N 35°29' E 139°40'0 0.0
2017-Dec-12 04:31N 35°29' E 139°40'0 0.0
2017-Dec-12 04:01N 35°29' E 139°40'0 0.0
2017-Dec-12 03:30N 35°29' E 139°40'0 0.0
2017-Dec-12 03:00N 35°29' E 139°40'0 0.0
2017-Dec-12 02:31N 35°29' E 139°40'0 0.0
2017-Dec-12 02:01N 35°29' E 139°40'0 0.0
2017-Dec-12 01:30N 35°29' E 139°40'0 0.0
2017-Dec-12 01:00N 35°29' E 139°40'0 0.0
2017-Dec-12 00:30N 35°29' E 139°40'0 0.0
2017-Dec-12 00:01N 35°29' E 139°40'0 0.0
2017-Dec-11 23:30N 35°29' E 139°40'0 0.0
2017-Dec-11 23:01N 35°29' E 139°40'0 0.0
2017-Dec-11 22:30N 35°29' E 139°40'0 0.0
2017-Dec-11 22:00N 35°29' E 139°40'0 0.0
2017-Dec-11 21:30N 35°29' E 139°40'0 0.0
2017-Dec-11 21:00N 35°29' E 139°40'0 0.0
2017-Dec-11 20:31N 35°29' E 139°40'0 0.0
2017-Dec-11 20:00N 35°29' E 139°40'0 0.0
2017-Dec-11 19:30N 35°29' E 139°40'0 0.0
2017-Dec-11 19:00N 35°29' E 139°40'0 0.0
2017-Dec-11 18:30N 35°29' E 139°40'0 0.0
2017-Dec-11 18:00N 35°29' E 139°40'0 0.0
2017-Dec-11 17:30N 35°29' E 139°40'0 0.0
2017-Dec-11 17:01N 35°29' E 139°40'0 0.0
2017-Dec-11 16:30N 35°29' E 139°40'0 0.0
2017-Dec-11 16:00N 35°29' E 139°40'0 0.0
2017-Dec-11 15:31N 35°29' E 139°40'0 0.0
2017-Dec-11 15:00N 35°29' E 139°40'0 0.0
2017-Dec-11 14:30N 35°29' E 139°40'0 0.0
2017-Dec-11 14:00N 35°29' E 139°40'0 0.0
2017-Dec-11 13:30N 35°29' E 139°40'0 0.0
2017-Dec-11 13:01N 35°29' E 139°40'0 0.0
2017-Dec-11 12:30N 35°29' E 139°40'0 0.0
2017-Dec-11 12:00N 35°29' E 139°40'0 0.0
2017-Dec-11 11:31N 35°29' E 139°40'0 0.0
2017-Dec-11 11:00N 35°29' E 139°40'0 0.0
2017-Dec-11 10:31N 35°29' E 139°40'0 0.0
2017-Dec-11 10:01N 35°29' E 139°40'0 0.0
2017-Dec-11 09:30N 35°29' E 139°40'0 0.0
2017-Dec-11 09:01N 35°29' E 139°40'0 0.0
2017-Dec-11 08:31N 35°29' E 139°40'0 0.0
2017-Dec-11 08:01N 35°29' E 139°40'0 0.0
2017-Dec-11 07:31N 35°29' E 139°40'0 0.0
2017-Dec-11 07:00N 35°29' E 139°40'0 0.0
2017-Dec-11 06:31N 35°29' E 139°40'0 0.0
2017-Dec-11 06:00N 35°29' E 139°40'0 0.0
2017-Dec-11 05:31N 35°29' E 139°40'0 0.0
2017-Dec-11 05:01N 35°29' E 139°40'0 0.0
2017-Dec-11 04:31N 35°29' E 139°40'0 0.0
2017-Dec-11 04:00N 35°29' E 139°40'0 0.0
2017-Dec-11 03:30N 35°29' E 139°40'1 1.8
2017-Dec-11 03:01N 35°28' E 139°41'510.4
2017-Dec-11 02:30N 35°30' E 139°47'611.0
2017-Dec-11 01:59N 35°32' E 139°54'511.1
2017-Dec-11 01:30N 35°34' E 140°00'5 9.5
2017-Dec-11 01:00N 35°36' E 140°05'0 0.2
2017-Dec-11 00:30N 35°36' E 140°05'0 0.2
2017-Dec-11 00:00N 35°36' E 140°05'0 0.0
2017-Dec-10 23:30N 35°36' E 140°05'0 0.0
2017-Dec-10 23:00N 35°36' E 140°05'0 0.0
2017-Dec-10 22:30N 35°36' E 140°05'0 0.0
2017-Dec-10 22:00N 35°36' E 140°05'0 0.0
2017-Dec-10 21:30N 35°36' E 140°05'0 0.0
2017-Dec-10 21:00N 35°36' E 140°05'0 0.2
2017-Dec-10 20:30N 35°36' E 140°05'2 3.4
2017-Dec-10 20:01N 35°35' E 140°04'0 0.0
2017-Dec-10 19:31N 35°35' E 140°04'0 0.0
2017-Dec-10 19:01N 35°35' E 140°04'0 0.0
2017-Dec-10 18:31N 35°35' E 140°04'0 0.0
2017-Dec-10 18:01N 35°35' E 140°04'0 0.0
2017-Dec-10 17:31N 35°35' E 140°04'0 0.0
2017-Dec-10 17:01N 35°35' E 140°04'0 0.0
2017-Dec-10 16:31N 35°35' E 140°04'0 0.0
2017-Dec-10 16:01N 35°35' E 140°04'0 0.0
2017-Dec-10 15:30N 35°35' E 140°04'0 0.0
2017-Dec-10 15:00N 35°35' E 140°04'0 0.0
2017-Dec-10 14:29N 35°35' E 140°04'0 0.0
2017-Dec-10 14:00N 35°35' E 140°04'0 0.0
2017-Dec-10 13:31N 35°35' E 140°04'0 0.0
2017-Dec-10 13:01N 35°35' E 140°04'0 0.0
2017-Dec-10 12:30N 35°35' E 140°04'0 0.0
2017-Dec-10 12:01N 35°35' E 140°04'0 0.0
2017-Dec-10 11:31N 35°35' E 140°04'0 0.0
2017-Dec-10 11:01N 35°35' E 140°04'0 0.0
2017-Dec-10 10:30N 35°35' E 140°04'0 0.0
2017-Dec-10 10:00N 35°35' E 140°04'0 0.0
2017-Dec-10 09:30N 35°35' E 140°04'0 0.0
2017-Dec-10 09:00N 35°35' E 140°04'0 0.0
2017-Dec-10 08:30N 35°35' E 140°04'0 0.0
2017-Dec-10 08:00N 35°35' E 140°04'0 0.0
2017-Dec-10 07:30N 35°35' E 140°04'0 0.0
2017-Dec-10 07:00N 35°35' E 140°04'2 4.5
2017-Dec-10 06:30N 35°34' E 140°01'611.7
2017-Dec-10 06:00N 35°31' E 139°55'611.8
2017-Dec-10 05:30N 35°27' E 139°50'611.5
2017-Dec-10 05:00N 35°22' E 139°45'510.4
2017-Dec-10 04:31N 35°17' E 139°45'510.9
2017-Dec-10 04:00N 35°12' E 139°47'611.8
2017-Dec-10 03:30N 35°06' E 139°45'612.1
2017-Dec-10 03:00N 35°02' E 139°39'2712.6
2017-Dec-10 00:54N 34°47' E 139°13'711.4
2017-Dec-10 00:16N 34°42' E 139°06'311.3
2017-Dec-10 00:00N 34°40' E 139°03'610.8
2017-Dec-09 23:26N 34°36' E 138°57'711.6
2017-Dec-09 22:51N 34°35' E 138°49'411.8
2017-Dec-09 22:29N 34°38' E 138°45'711.0
2017-Dec-09 21:53N 34°44' E 138°41'410.7
2017-Dec-09 21:30N 34°48' E 138°39'611.0
2017-Dec-09 20:59N 34°53' E 138°36'511.4
2017-Dec-09 20:30N 34°58' E 138°34'5 9.0
2017-Dec-09 20:00N 35°01' E 138°30'0 0.6
2017-Dec-09 19:30N 35°01' E 138°30'0 0.0
2017-Dec-09 19:00N 35°01' E 138°30'0 0.0
2017-Dec-09 18:30N 35°01' E 138°30'0 0.0
2017-Dec-09 18:00N 35°01' E 138°30'0 0.0
2017-Dec-09 17:30N 35°01' E 138°30'0 0.0
2017-Dec-09 17:00N 35°01' E 138°30'0 0.0
2017-Dec-09 16:30N 35°01' E 138°30'0 0.0
2017-Dec-09 16:00N 35°01' E 138°30'0 0.0
2017-Dec-09 15:30N 35°01' E 138°30'0 0.0
2017-Dec-09 15:00N 35°01' E 138°30'0 0.0
2017-Dec-09 14:30N 35°01' E 138°30'0 0.0
2017-Dec-09 14:00N 35°01' E 138°30'0 0.0
2017-Dec-09 13:30N 35°01' E 138°30'0 0.0
2017-Dec-09 13:00N 35°01' E 138°30'0 0.0
2017-Dec-09 12:30N 35°01' E 138°30'0 0.0
2017-Dec-09 12:00N 35°01' E 138°30'0 0.0
2017-Dec-09 11:30N 35°01' E 138°30'0 0.0
2017-Dec-09 11:00N 35°01' E 138°30'0 0.0
2017-Dec-09 10:30N 35°01' E 138°30'0 0.0
2017-Dec-09 10:00N 35°01' E 138°30'0 0.0
2017-Dec-09 09:30N 35°01' E 138°30'0 0.0
2017-Dec-09 09:00N 35°01' E 138°30'0 0.0
2017-Dec-09 08:30N 35°01' E 138°30'0 0.0
2017-Dec-09 08:00N 35°01' E 138°30'0 0.0
2017-Dec-09 07:30N 35°01' E 138°30'0 0.0
2017-Dec-09 07:00N 35°01' E 138°30'0 0.0
2017-Dec-09 06:30N 35°01' E 138°30'0 0.0
2017-Dec-09 06:00N 35°01' E 138°30'0 0.0
2017-Dec-09 05:30N 35°01' E 138°30'0 0.0
2017-Dec-09 05:00N 35°01' E 138°30'0 0.0
2017-Dec-09 04:30N 35°01' E 138°30'0 0.0
2017-Dec-09 04:00N 35°01' E 138°30'0 0.0
2017-Dec-09 03:30N 35°01' E 138°30'0 0.0
2017-Dec-09 03:00N 35°01' E 138°30'0 0.0
2017-Dec-09 02:30N 35°01' E 138°30'0 0.0
2017-Dec-09 02:00N 35°01' E 138°30'0 0.0
2017-Dec-09 01:30N 35°01' E 138°30'0 0.0
2017-Dec-09 01:00N 35°01' E 138°30'0 0.0
2017-Dec-09 00:30N 35°01' E 138°30'0 0.0
2017-Dec-09 00:00N 35°01' E 138°30'0 0.0
2017-Dec-08 23:30N 35°01' E 138°30'0 0.0
2017-Dec-08 23:00N 35°01' E 138°30'0 0.0
2017-Dec-08 22:30N 35°01' E 138°30'0 0.0
2017-Dec-08 22:00N 35°01' E 138°30'0 0.0
2017-Dec-08 21:30N 35°01' E 138°30'0 0.0
2017-Dec-08 21:00N 35°01' E 138°30'0 0.0
2017-Dec-08 20:30N 35°01' E 138°30'0 0.0
2017-Dec-08 20:00N 35°01' E 138°30'0 0.0
2017-Dec-08 19:30N 35°01' E 138°30'0 0.0
2017-Dec-08 19:00N 35°01' E 138°30'0 0.0
2017-Dec-08 18:30N 35°01' E 138°30'0 0.0
2017-Dec-08 18:00N 35°01' E 138°30'0 0.0
2017-Dec-08 17:30N 35°01' E 138°30'0 0.0
2017-Dec-08 17:00N 35°01' E 138°30'0 0.0
2017-Dec-08 16:30N 35°01' E 138°30'0 0.0
2017-Dec-08 16:00N 35°01' E 138°30'0 0.0
2017-Dec-08 15:30N 35°01' E 138°30'0 0.0
2017-Dec-08 15:01N 35°01' E 138°30'0 0.0
2017-Dec-08 14:30N 35°01' E 138°30'0 0.0
2017-Dec-08 14:00N 35°01' E 138°30'0 0.0
2017-Dec-08 13:30N 35°01' E 138°30'0 0.0
2017-Dec-08 13:00N 35°01' E 138°30'0 0.0
2017-Dec-08 12:30N 35°01' E 138°30'0 0.0
2017-Dec-08 12:00N 35°01' E 138°30'0 0.0
2017-Dec-08 11:30N 35°01' E 138°30'0 0.0
2017-Dec-08 11:00N 35°01' E 138°30'0 0.0
2017-Dec-08 10:30N 35°01' E 138°30'0 0.0
2017-Dec-08 10:00N 35°01' E 138°30'0 0.0
2017-Dec-08 09:30N 35°01' E 138°30'0 0.0
2017-Dec-08 09:00N 35°01' E 138°30'0 0.0
2017-Dec-08 08:30N 35°01' E 138°30'0 0.0
2017-Dec-08 08:00N 35°01' E 138°30'0 0.0
2017-Dec-08 07:30N 35°01' E 138°30'0 0.0
2017-Dec-08 07:00N 35°01' E 138°30'0 0.0
2017-Dec-08 06:30N 35°01' E 138°30'0 0.0
2017-Dec-08 06:00N 35°01' E 138°30'0 0.0
2017-Dec-08 05:30N 35°01' E 138°30'0 0.0
2017-Dec-08 05:00N 35°01' E 138°30'0 0.0
2017-Dec-08 04:30N 35°01' E 138°30'0 0.0
2017-Dec-08 04:00N 35°01' E 138°30'0 0.0
2017-Dec-08 03:30N 35°01' E 138°30'0 0.0
2017-Dec-08 03:00N 35°01' E 138°30'0 0.0
2017-Dec-08 02:30N 35°01' E 138°30'0 0.0
2017-Dec-08 02:00N 35°01' E 138°30'0 0.0
2017-Dec-08 01:30N 35°01' E 138°30'0 0.0
2017-Dec-08 01:00N 35°01' E 138°30'0 0.0
2017-Dec-08 00:30N 35°01' E 138°30'0 0.0
2017-Dec-08 00:00N 35°01' E 138°30'0 0.0
2017-Dec-07 23:30N 35°01' E 138°30'0 0.0
2017-Dec-07 23:00N 35°01' E 138°30'0 0.0
2017-Dec-07 22:30N 35°01' E 138°30'0 0.0
2017-Dec-07 22:00N 35°01' E 138°30'0 0.0
2017-Dec-07 21:30N 35°01' E 138°30'0 0.0
2017-Dec-07 21:00N 35°01' E 138°30'0 0.0
2017-Dec-07 20:30N 35°01' E 138°30'0 0.0
2017-Dec-07 20:00N 35°01' E 138°30'0 0.0
2017-Dec-07 19:30N 35°01' E 138°30'  
Track history (hours):
 
Tides and Currents Weather Stations Pressure Air Temp Water Temp Dewpoint Dewpoint Depression Visibility Wind Speed Wind Dir Waves Ship Positions

New Stream

Last reported at 2017-Dec-17 19:30 UTC. Time now 2017-Dec-17 19:47 UTC.
Position N 34°42' E 135°16'.

Length 51 m; draft 3.5 m.

Type: Tanker. MMSI: 431004149.

Date/timePositionNaut miles runAvg speedWind from/ knotsBaromVisibWave heightAir tempDewpointWater temp
2017-Dec-17 19:30N 34°42' E 135°16'0 0.0
2017-Dec-17 19:01N 34°42' E 135°16'0 0.0
2017-Dec-17 18:31N 34°42' E 135°16'0 0.0
2017-Dec-17 18:00N 34°42' E 135°16'0 0.0
2017-Dec-17 17:30N 34°42' E 135°16'0 0.0
2017-Dec-17 17:01N 34°42' E 135°16'0 0.0
2017-Dec-17 16:30N 34°42' E 135°16'0 0.0
2017-Dec-17 16:00N 34°42' E 135°16'0 0.0
2017-Dec-17 15:31N 34°42' E 135°16'0 0.0
2017-Dec-17 15:00N 34°42' E 135°16'0 0.0
2017-Dec-17 14:31N 34°42' E 135°16'0 0.0
2017-Dec-17 14:01N 34°42' E 135°16'0 0.0
2017-Dec-17 13:31N 34°42' E 135°16'0 0.0
2017-Dec-17 13:01N 34°42' E 135°16'0 0.0
2017-Dec-17 12:31N 34°42' E 135°16'0 0.0
2017-Dec-17 12:01N 34°42' E 135°16'0 0.0
2017-Dec-17 11:31N 34°42' E 135°16'0 0.0
2017-Dec-17 11:00N 34°42' E 135°16'0 0.0
2017-Dec-17 10:30N 34°42' E 135°16'0 0.0
2017-Dec-17 10:01N 34°42' E 135°16'0 0.0
2017-Dec-17 09:30N 34°42' E 135°16'0 0.0
2017-Dec-17 09:00N 34°42' E 135°16'0 0.0
2017-Dec-17 08:31N 34°42' E 135°16'0 0.0
2017-Dec-17 08:01N 34°42' E 135°16'0 0.0
2017-Dec-17 07:30N 34°42' E 135°16'0 0.0
2017-Dec-17 07:00N 34°42' E 135°16'0 0.0
2017-Dec-17 06:31N 34°42' E 135°16'0 0.0
2017-Dec-17 06:01N 34°42' E 135°16'0 0.5
2017-Dec-17 05:30N 34°42' E 135°16'4 8.8
2017-Dec-17 05:00N 34°38' E 135°18'611.2
2017-Dec-17 04:30N 34°33' E 135°15'611.0
2017-Dec-17 04:00N 34°28' E 135°11'510.7
2017-Dec-17 03:30N 34°24' E 135°08'510.4
2017-Dec-17 03:00N 34°19' E 135°04'4 9.0
2017-Dec-17 02:31N 34°15' E 135°03'510.8
2017-Dec-17 02:00N 34°10' E 135°03'510.4
2017-Dec-17 01:30N 34°04' E 135°03'5 9.8
2017-Dec-17 01:00N 33°59' E 135°02'96 6.5
2017-Dec-16 10:19N 34°29' E 136°52'411.7
2017-Dec-16 10:00N 34°31' E 136°48'711.9
2017-Dec-16 09:24N 34°37' E 136°43'511.2
2017-Dec-16 08:56N 34°38' E 136°37'3 6.4
2017-Dec-16 08:29N 34°37' E 136°33'0 0.0
2017-Dec-16 06:58N 34°37' E 136°33'0 0.0
2017-Dec-16 06:30N 34°37' E 136°33'0 0.0
2017-Dec-16 03:48N 34°37' E 136°33'2 6.4
2017-Dec-16 03:30N 34°38' E 136°35'611.2
2017-Dec-16 03:00N 34°37' E 136°42'611.1
2017-Dec-16 02:26N 34°36' E 136°49'1710.7
2017-Dec-16 00:51N 34°33' E 137°10'411.1
2017-Dec-16 00:30N 34°34' E 137°14'4510.5
2017-Dec-15 20:11N 34°34' E 138°09'2 9.4
2017-Dec-15 19:57N 34°34' E 138°12'510.0
2017-Dec-15 19:30N 34°34' E 138°18'510.4
2017-Dec-15 19:00N 34°34' E 138°24'611.0
2017-Dec-15 18:30N 34°35' E 138°30'610.6
2017-Dec-15 17:55N 34°35' E 138°38'5 9.9
2017-Dec-15 17:24N 34°35' E 138°44'4 9.5
2017-Dec-15 17:01N 34°35' E 138°49'5 9.4
2017-Dec-15 16:30N 34°35' E 138°54'510.3
2017-Dec-15 16:00N 34°38' E 138°60'611.7
2017-Dec-15 15:30N 34°43' E 139°04'611.1
2017-Dec-15 15:00N 34°47' E 139°07'611.7
2017-Dec-15 14:30N 34°52' E 139°11'611.2
2017-Dec-15 13:59N 34°56' E 139°17'610.2
2017-Dec-15 13:26N 34°59' E 139°23'510.2
2017-Dec-15 12:57N 35°01' E 139°28'510.5
2017-Dec-15 12:26N 35°04' E 139°34'510.7
2017-Dec-15 12:00N 35°06' E 139°39'611.0
2017-Dec-15 11:30N 35°10' E 139°44'611.6
2017-Dec-15 11:01N 35°15' E 139°46'611.8
2017-Dec-15 10:30N 35°20' E 139°42'611.5
2017-Dec-15 10:00N 35°26' E 139°42'3 6.6
2017-Dec-15 09:31N 35°29' E 139°40'0 0.0
2017-Dec-15 09:01N 35°29' E 139°40'0 0.0
2017-Dec-15 08:31N 35°29' E 139°40'0 0.0
2017-Dec-15 08:01N 35°29' E 139°40'0 0.0
2017-Dec-15 07:30N 35°29' E 139°40'0 0.0
2017-Dec-15 07:00N 35°29' E 139°40'0 0.0
2017-Dec-15 06:31N 35°29' E 139°40'0 0.0
2017-Dec-15 06:01N 35°29' E 139°40'0 0.0
2017-Dec-15 05:31N 35°29' E 139°40'0 0.0
2017-Dec-15 05:00N 35°29' E 139°40'0 0.0
2017-Dec-15 04:30N 35°29' E 139°40'0 0.0
2017-Dec-15 04:01N 35°29' E 139°40'0 0.0
2017-Dec-15 02:31N 35°29' E 139°40'0 0.0
2017-Dec-15 01:01N 35°29' E 139°40'0 0.0
2017-Dec-15 00:30N 35°29' E 139°40'0 0.0
2017-Dec-14 18:31N 35°29' E 139°40'0 0.0
2017-Dec-14 18:00N 35°29' E 139°40'0 0.0
2017-Dec-14 17:31N 35°29' E 139°40'0 0.0
2017-Dec-14 17:00N 35°29' E 139°40'0 0.0
2017-Dec-14 16:31N 35°29' E 139°40'0 0.0
2017-Dec-14 16:01N 35°29' E 139°40'0 0.0
2017-Dec-14 15:01N 35°29' E 139°40'0 0.0
2017-Dec-14 14:31N 35°29' E 139°40'0 0.0
2017-Dec-14 14:01N 35°29' E 139°40'0 0.0
2017-Dec-14 13:31N 35°29' E 139°40'0 0.0
2017-Dec-14 13:00N 35°29' E 139°40'0 0.0
2017-Dec-14 12:31N 35°29' E 139°40'0 0.0
2017-Dec-14 12:01N 35°29' E 139°40'0 0.0
2017-Dec-14 11:30N 35°29' E 139°40'0 0.0
2017-Dec-14 11:01N 35°29' E 139°40'0 0.0
2017-Dec-14 10:31N 35°29' E 139°40'0 0.0
2017-Dec-14 10:01N 35°29' E 139°40'0 0.0
2017-Dec-14 09:31N 35°29' E 139°40'0 0.0
2017-Dec-14 09:01N 35°29' E 139°40'0 0.0
2017-Dec-14 08:31N 35°29' E 139°40'0 0.0
2017-Dec-14 08:01N 35°29' E 139°40'0 0.0
2017-Dec-14 07:31N 35°29' E 139°40'0 0.0
2017-Dec-14 07:00N 35°29' E 139°40'0 0.0
2017-Dec-14 06:31N 35°29' E 139°40'0 0.0
2017-Dec-14 06:01N 35°29' E 139°40'0 0.0
2017-Dec-14 05:30N 35°29' E 139°40'0 0.0
2017-Dec-14 05:00N 35°29' E 139°40'0 0.0
2017-Dec-14 04:31N 35°29' E 139°40'0 0.0
2017-Dec-14 04:00N 35°29' E 139°40'0 0.0
2017-Dec-14 03:31N 35°29' E 139°40'0 0.0
2017-Dec-14 03:01N 35°29' E 139°40'0 0.0
2017-Dec-14 02:30N 35°29' E 139°40'0 0.0
2017-Dec-14 02:01N 35°29' E 139°40'0 0.0
2017-Dec-14 01:31N 35°29' E 139°40'0 0.0
2017-Dec-14 01:01N 35°29' E 139°40'0 0.0
2017-Dec-14 00:31N 35°29' E 139°40'0 0.0
2017-Dec-14 00:00N 35°29' E 139°40'0 0.0
2017-Dec-13 23:31N 35°29' E 139°40'0 0.0
2017-Dec-13 23:00N 35°29' E 139°40'0 0.0
2017-Dec-13 22:31N 35°29' E 139°40'0 0.0
2017-Dec-13 22:00N 35°29' E 139°40'2 3.3
2017-Dec-13 21:30N 35°27' E 139°41'5 9.6
2017-Dec-13 21:00N 35°23' E 139°43'5 9.8
2017-Dec-13 20:30N 35°18' E 139°44'5 9.9
2017-Dec-13 20:00N 35°14' E 139°47'510.1
2017-Dec-13 19:30N 35°09' E 139°46'1110.2
2017-Dec-13 18:27N 34°60' E 139°39'2411.0
2017-Dec-13 16:15N 34°46' E 139°14'1011.0
2017-Dec-13 15:20N 34°40' E 139°04'5 9.9
2017-Dec-13 14:51N 34°37' E 138°60'4 9.6
2017-Dec-13 14:28N 34°35' E 138°56'1310.8
2017-Dec-13 13:17N 34°36' E 138°41'311.1
2017-Dec-13 13:00N 34°38' E 138°38'610.4
2017-Dec-13 12:28N 34°43' E 138°35'510.5
2017-Dec-13 12:00N 34°48' E 138°34'510.9
2017-Dec-13 11:31N 34°54' E 138°34'510.7
2017-Dec-13 11:00N 34°59' E 138°34'4 7.5
2017-Dec-13 10:31N 35°01' E 138°30'0 0.3
2017-Dec-13 10:00N 35°01' E 138°30'0 0.0
2017-Dec-13 09:30N 35°01' E 138°30'0 0.0
2017-Dec-13 09:00N 35°01' E 138°30'0 0.0
2017-Dec-13 08:30N 35°01' E 138°30'0 0.0
2017-Dec-13 08:00N 35°01' E 138°30'0 0.0
2017-Dec-13 07:30N 35°01' E 138°30'0 0.0
2017-Dec-13 07:00N 35°01' E 138°30'0 0.0
2017-Dec-13 06:30N 35°01' E 138°30'0 0.0
2017-Dec-13 06:00N 35°01' E 138°30'0 0.0
2017-Dec-13 05:30N 35°01' E 138°30'0 0.0
2017-Dec-13 05:00N 35°01' E 138°30'0 0.0
2017-Dec-13 04:30N 35°01' E 138°30'0 0.0
2017-Dec-13 04:01N 35°01' E 138°30'0 0.0
2017-Dec-13 03:30N 35°01' E 138°30'0 0.0
2017-Dec-13 03:00N 35°01' E 138°30'0 0.0
2017-Dec-13 02:30N 35°01' E 138°30'0 0.0
2017-Dec-13 02:00N 35°01' E 138°30'0 0.0
2017-Dec-13 01:30N 35°01' E 138°30'0 0.0
2017-Dec-13 01:00N 35°01' E 138°30'0 0.0
2017-Dec-13 00:30N 35°01' E 138°30'1 2.3
2017-Dec-13 00:01N 35°01' E 138°31'4 7.8
2017-Dec-12 23:30N 34°57' E 138°31'611.2
2017-Dec-12 23:00N 34°53' E 138°27'611.6
2017-Dec-12 22:30N 34°48' E 138°23'4 7.7
2017-Dec-12 21:59N 34°45' E 138°26'5 9.8
2017-Dec-12 21:30N 34°43' E 138°31'4 7.7
2017-Dec-12 20:59N 34°41' E 138°36'3 6.9
2017-Dec-12 20:30N 34°40' E 138°39'3 6.1
2017-Dec-12 20:00N 34°38' E 138°42'2 4.9
2017-Dec-12 19:30N 34°37' E 138°45'2 4.0
2017-Dec-12 19:00N 34°36' E 138°47'2 3.9
2017-Dec-12 18:31N 34°36' E 138°49'2 3.6
2017-Dec-12 18:00N 34°35' E 138°52'2 3.8
2017-Dec-12 17:30N 34°35' E 138°54'3 5.1
2017-Dec-12 17:00N 34°36' E 138°57'4 7.6
2017-Dec-12 16:30N 34°38' E 139°00'510.2
2017-Dec-12 16:00N 34°43' E 139°03'510.6
2017-Dec-12 15:31N 34°47' E 139°06'610.4
2017-Dec-12 14:54N 34°52' E 139°11'410.8
2017-Dec-12 14:30N 34°55' E 139°16'610.9
2017-Dec-12 13:58N 34°58' E 139°22'510.5
2017-Dec-12 13:30N 35°00' E 139°27'711.1
2017-Dec-12 12:53N 35°04' E 139°34'511.6
2017-Dec-12 12:29N 35°06' E 139°39'611.3
2017-Dec-12 11:59N 35°10' E 139°44'510.9
2017-Dec-12 11:31N 35°15' E 139°46'611.1
2017-Dec-12 11:01N 35°20' E 139°43'611.4
2017-Dec-12 10:31N 35°25' E 139°42'4 8.0
2017-Dec-12 10:01N 35°29' E 139°40'0 0.0
2017-Dec-12 09:31N 35°29' E 139°40'0 0.0
2017-Dec-12 09:01N 35°29' E 139°40'0 0.0
2017-Dec-12 08:31N 35°29' E 139°40'0 0.0
2017-Dec-12 08:00N 35°29' E 139°40'0 0.0
2017-Dec-12 07:30N 35°29' E 139°40'0 0.0
2017-Dec-12 07:01N 35°29' E 139°40'0 0.0
2017-Dec-12 06:31N 35°29' E 139°40'0 0.0
2017-Dec-12 06:01N 35°29' E 139°40'0 0.0
2017-Dec-12 05:30N 35°29' E 139°40'0 0.0
2017-Dec-12 05:01N 35°29' E 139°40'0 0.0
2017-Dec-12 04:31N 35°29' E 139°40'0 0.0
2017-Dec-12 04:01N 35°29' E 139°40'0 0.0
2017-Dec-12 03:30N 35°29' E 139°40'0 0.0
2017-Dec-12 03:00N 35°29' E 139°40'0 0.0
2017-Dec-12 02:31N 35°29' E 139°40'0 0.0
2017-Dec-12 02:01N 35°29' E 139°40'0 0.0
2017-Dec-12 01:30N 35°29' E 139°40'0 0.0
2017-Dec-12 01:00N 35°29' E 139°40'0 0.0
2017-Dec-12 00:30N 35°29' E 139°40'0 0.0
2017-Dec-12 00:01N 35°29' E 139°40'0 0.0
2017-Dec-11 23:30N 35°29' E 139°40'0 0.0
2017-Dec-11 23:01N 35°29' E 139°40'0 0.0
2017-Dec-11 22:30N 35°29' E 139°40'0 0.0
2017-Dec-11 22:00N 35°29' E 139°40'0 0.0
2017-Dec-11 21:30N 35°29' E 139°40'0 0.0
2017-Dec-11 21:00N 35°29' E 139°40'0 0.0
2017-Dec-11 20:31N 35°29' E 139°40'0 0.0
2017-Dec-11 20:00N 35°29' E 139°40'0 0.0
2017-Dec-11 19:30N 35°29' E 139°40'0 0.0
2017-Dec-11 19:00N 35°29' E 139°40'0 0.0
2017-Dec-11 18:30N 35°29' E 139°40'0 0.0
2017-Dec-11 18:00N 35°29' E 139°40'0 0.0
2017-Dec-11 17:30N 35°29' E 139°40'0 0.0
2017-Dec-11 17:01N 35°29' E 139°40'0 0.0
2017-Dec-11 16:30N 35°29' E 139°40'0 0.0
2017-Dec-11 16:00N 35°29' E 139°40'0 0.0
2017-Dec-11 15:31N 35°29' E 139°40'0 0.0
2017-Dec-11 15:00N 35°29' E 139°40'0 0.0
2017-Dec-11 14:30N 35°29' E 139°40'0 0.0
2017-Dec-11 14:00N 35°29' E 139°40'0 0.0
2017-Dec-11 13:30N 35°29' E 139°40'0 0.0
2017-Dec-11 13:01N 35°29' E 139°40'0 0.0
2017-Dec-11 12:30N 35°29' E 139°40'0 0.0
2017-Dec-11 12:00N 35°29' E 139°40'0 0.0
2017-Dec-11 11:31N 35°29' E 139°40'0 0.0
2017-Dec-11 11:00N 35°29' E 139°40'0 0.0
2017-Dec-11 10:31N 35°29' E 139°40'0 0.0
2017-Dec-11 10:01N 35°29' E 139°40'0 0.0
2017-Dec-11 09:30N 35°29' E 139°40'0 0.0
2017-Dec-11 09:01N 35°29' E 139°40'0 0.0
2017-Dec-11 08:31N 35°29' E 139°40'0 0.0
2017-Dec-11 08:01N 35°29' E 139°40'0 0.0
2017-Dec-11 07:31N 35°29' E 139°40'0 0.0
2017-Dec-11 07:00N 35°29' E 139°40'0 0.0
2017-Dec-11 06:31N 35°29' E 139°40'0 0.0
2017-Dec-11 06:00N 35°29' E 139°40'0 0.0
2017-Dec-11 05:31N 35°29' E 139°40'0 0.0
2017-Dec-11 05:01N 35°29' E 139°40'0 0.0
2017-Dec-11 04:31N 35°29' E 139°40'0 0.0
2017-Dec-11 04:00N 35°29' E 139°40'0 0.0
2017-Dec-11 03:30N 35°29' E 139°40'1 1.8
2017-Dec-11 03:01N 35°28' E 139°41'510.4
2017-Dec-11 02:30N 35°30' E 139°47'611.0
2017-Dec-11 01:59N 35°32' E 139°54'511.1
2017-Dec-11 01:30N 35°34' E 140°00'5 9.5
2017-Dec-11 01:00N 35°36' E 140°05'0 0.2
2017-Dec-11 00:30N 35°36' E 140°05'0 0.2
2017-Dec-11 00:00N 35°36' E 140°05'0 0.0
2017-Dec-10 23:30N 35°36' E 140°05'0 0.0
2017-Dec-10 23:00N 35°36' E 140°05'0 0.0
2017-Dec-10 22:30N 35°36' E 140°05'0 0.0
2017-Dec-10 22:00N 35°36' E 140°05'0 0.0
2017-Dec-10 21:30N 35°36' E 140°05'0 0.0
2017-Dec-10 21:00N 35°36' E 140°05'0 0.2
2017-Dec-10 20:30N 35°36' E 140°05'2 3.4
2017-Dec-10 20:01N 35°35' E 140°04'0 0.0
2017-Dec-10 19:31N 35°35' E 140°04'0 0.0
2017-Dec-10 19:01N 35°35' E 140°04'0 0.0
2017-Dec-10 18:31N 35°35' E 140°04'0 0.0
2017-Dec-10 18:01N 35°35' E 140°04'0 0.0
2017-Dec-10 17:31N 35°35' E 140°04'0 0.0
2017-Dec-10 17:01N 35°35' E 140°04'0 0.0
2017-Dec-10 16:31N 35°35' E 140°04'0 0.0
2017-Dec-10 16:01N 35°35' E 140°04'0 0.0
2017-Dec-10 15:30N 35°35' E 140°04'0 0.0
2017-Dec-10 15:00N 35°35' E 140°04'0 0.0
2017-Dec-10 14:29N 35°35' E 140°04'0 0.0
2017-Dec-10 14:00N 35°35' E 140°04'0 0.0
2017-Dec-10 13:31N 35°35' E 140°04'0 0.0
2017-Dec-10 13:01N 35°35' E 140°04'0 0.0
2017-Dec-10 12:30N 35°35' E 140°04'0 0.0
2017-Dec-10 12:01N 35°35' E 140°04'0 0.0
2017-Dec-10 11:31N 35°35' E 140°04'0 0.0
2017-Dec-10 11:01N 35°35' E 140°04'0 0.0
2017-Dec-10 10:30N 35°35' E 140°04'0 0.0
2017-Dec-10 10:00N 35°35' E 140°04'0 0.0
2017-Dec-10 09:30N 35°35' E 140°04'0 0.0
2017-Dec-10 09:00N 35°35' E 140°04'0 0.0
2017-Dec-10 08:30N 35°35' E 140°04'0 0.0
2017-Dec-10 08:00N 35°35' E 140°04'0 0.0
2017-Dec-10 07:30N 35°35' E 140°04'0 0.0
2017-Dec-10 07:00N 35°35' E 140°04'2 4.5
2017-Dec-10 06:30N 35°34' E 140°01'611.7
2017-Dec-10 06:00N 35°31' E 139°55'611.8
2017-Dec-10 05:30N 35°27' E 139°50'611.5
2017-Dec-10 05:00N 35°22' E 139°45'510.4
2017-Dec-10 04:31N 35°17' E 139°45'510.9
2017-Dec-10 04:00N 35°12' E 139°47'611.8
2017-Dec-10 03:30N 35°06' E 139°45'612.1
2017-Dec-10 03:00N 35°02' E 139°39'2712.6
2017-Dec-10 00:54N 34°47' E 139°13'711.4
2017-Dec-10 00:16N 34°42' E 139°06'311.3
2017-Dec-10 00:00N 34°40' E 139°03'610.8
2017-Dec-09 23:26N 34°36' E 138°57'711.6
2017-Dec-09 22:51N 34°35' E 138°49'411.8
2017-Dec-09 22:29N 34°38' E 138°45'711.0
2017-Dec-09 21:53N 34°44' E 138°41'410.7
2017-Dec-09 21:30N 34°48' E 138°39'611.0
2017-Dec-09 20:59N 34°53' E 138°36'511.4
2017-Dec-09 20:30N 34°58' E 138°34'5 9.0
2017-Dec-09 20:00N 35°01' E 138°30'0 0.6
2017-Dec-09 19:30N 35°01' E 138°30'0 0.0
2017-Dec-09 19:00N 35°01' E 138°30'0 0.0
2017-Dec-09 18:30N 35°01' E 138°30'0 0.0
2017-Dec-09 18:00N 35°01' E 138°30'0 0.0
2017-Dec-09 17:30N 35°01' E 138°30'0 0.0
2017-Dec-09 17:00N 35°01' E 138°30'0 0.0
2017-Dec-09 16:30N 35°01' E 138°30'0 0.0
2017-Dec-09 16:00N 35°01' E 138°30'0 0.0
2017-Dec-09 15:30N 35°01' E 138°30'0 0.0
2017-Dec-09 15:00N 35°01' E 138°30'0 0.0
2017-Dec-09 14:30N 35°01' E 138°30'0 0.0
2017-Dec-09 14:00N 35°01' E 138°30'0 0.0
2017-Dec-09 13:30N 35°01' E 138°30'0 0.0
2017-Dec-09 13:00N 35°01' E 138°30'0 0.0
2017-Dec-09 12:30N 35°01' E 138°30'0 0.0
2017-Dec-09 12:00N 35°01' E 138°30'0 0.0
2017-Dec-09 11:30N 35°01' E 138°30'0 0.0
2017-Dec-09 11:00N 35°01' E 138°30'0 0.0
2017-Dec-09 10:30N 35°01' E 138°30'0 0.0
2017-Dec-09 10:00N 35°01' E 138°30'0 0.0
2017-Dec-09 09:30N 35°01' E 138°30'0 0.0
2017-Dec-09 09:00N 35°01' E 138°30'0 0.0
2017-Dec-09 08:30N 35°01' E 138°30'0 0.0
2017-Dec-09 08:00N 35°01' E 138°30'0 0.0
2017-Dec-09 07:30N 35°01' E 138°30'0 0.0
2017-Dec-09 07:00N 35°01' E 138°30'0 0.0
2017-Dec-09 06:30N 35°01' E 138°30'0 0.0
2017-Dec-09 06:00N 35°01' E 138°30'0 0.0
2017-Dec-09 05:30N 35°01' E 138°30'0 0.0
2017-Dec-09 05:00N 35°01' E 138°30'0 0.0
2017-Dec-09 04:30N 35°01' E 138°30'0 0.0
2017-Dec-09 04:00N 35°01' E 138°30'0 0.0
2017-Dec-09 03:30N 35°01' E 138°30'0 0.0
2017-Dec-09 03:00N 35°01' E 138°30'0 0.0
2017-Dec-09 02:30N 35°01' E 138°30'0 0.0
2017-Dec-09 02:00N 35°01' E 138°30'0 0.0
2017-Dec-09 01:30N 35°01' E 138°30'0 0.0
2017-Dec-09 01:00N 35°01' E 138°30'0 0.0
2017-Dec-09 00:30N 35°01' E 138°30'0 0.0
2017-Dec-09 00:00N 35°01' E 138°30'0 0.0
2017-Dec-08 23:30N 35°01' E 138°30'0 0.0
2017-Dec-08 23:00N 35°01' E 138°30'0 0.0
2017-Dec-08 22:30N 35°01' E 138°30'0 0.0
2017-Dec-08 22:00N 35°01' E 138°30'0 0.0
2017-Dec-08 21:30N 35°01' E 138°30'0 0.0
2017-Dec-08 21:00N 35°01' E 138°30'0 0.0
2017-Dec-08 20:30N 35°01' E 138°30'0 0.0
2017-Dec-08 20:00N 35°01' E 138°30'0 0.0
2017-Dec-08 19:30N 35°01' E 138°30'0 0.0
2017-Dec-08 19:00N 35°01' E 138°30'0 0.0
2017-Dec-08 18:30N 35°01' E 138°30'0 0.0
2017-Dec-08 18:00N 35°01' E 138°30'0 0.0
2017-Dec-08 17:30N 35°01' E 138°30'0 0.0
2017-Dec-08 17:00N 35°01' E 138°30'0 0.0
2017-Dec-08 16:30N 35°01' E 138°30'0 0.0
2017-Dec-08 16:00N 35°01' E 138°30'0 0.0
2017-Dec-08 15:30N 35°01' E 138°30'0 0.0
2017-Dec-08 15:01N 35°01' E 138°30'0 0.0
2017-Dec-08 14:30N 35°01' E 138°30'0 0.0
2017-Dec-08 14:00N 35°01' E 138°30'0 0.0
2017-Dec-08 13:30N 35°01' E 138°30'0 0.0
2017-Dec-08 13:00N 35°01' E 138°30'0 0.0
2017-Dec-08 12:30N 35°01' E 138°30'0 0.0
2017-Dec-08 12:00N 35°01' E 138°30'0 0.0
2017-Dec-08 11:30N 35°01' E 138°30'0 0.0
2017-Dec-08 11:00N 35°01' E 138°30'0 0.0
2017-Dec-08 10:30N 35°01' E 138°30'0 0.0
2017-Dec-08 10:00N 35°01' E 138°30'0 0.0
2017-Dec-08 09:30N 35°01' E 138°30'0 0.0
2017-Dec-08 09:00N 35°01' E 138°30'0 0.0
2017-Dec-08 08:30N 35°01' E 138°30'0 0.0
2017-Dec-08 08:00N 35°01' E 138°30'0 0.0
2017-Dec-08 07:30N 35°01' E 138°30'0 0.0
2017-Dec-08 07:00N 35°01' E 138°30'0 0.0
2017-Dec-08 06:30N 35°01' E 138°30'0 0.0
2017-Dec-08 06:00N 35°01' E 138°30'0 0.0
2017-Dec-08 05:30N 35°01' E 138°30'0 0.0
2017-Dec-08 05:00N 35°01' E 138°30'0 0.0
2017-Dec-08 04:30N 35°01' E 138°30'0 0.0
2017-Dec-08 04:00N 35°01' E 138°30'0 0.0
2017-Dec-08 03:30N 35°01' E 138°30'0 0.0
2017-Dec-08 03:00N 35°01' E 138°30'0 0.0
2017-Dec-08 02:30N 35°01' E 138°30'0 0.0
2017-Dec-08 02:00N 35°01' E 138°30'0 0.0
2017-Dec-08 01:30N 35°01' E 138°30'0 0.0
2017-Dec-08 01:00N 35°01' E 138°30'0 0.0
2017-Dec-08 00:30N 35°01' E 138°30'0 0.0
2017-Dec-08 00:00N 35°01' E 138°30'0 0.0
2017-Dec-07 23:30N 35°01' E 138°30'0 0.0
2017-Dec-07 23:00N 35°01' E 138°30'0 0.0
2017-Dec-07 22:30N 35°01' E 138°30'0 0.0
2017-Dec-07 22:00N 35°01' E 138°30'0 0.0
2017-Dec-07 21:30N 35°01' E 138°30'0 0.0
2017-Dec-07 21:00N 35°01' E 138°30'0 0.0
2017-Dec-07 20:30N 35°01' E 138°30'0 0.0
2017-Dec-07 20:00N 35°01' E 138°30'0 0.0
2017-Dec-07 19:30N 35°01' E 138°30'  

Dump ship's entire track history